Terminal Aerodrome Forecast
Issued by NWS Memphis, TN

Home | Current Version | Previous Version | Text Only | Print | Product List | Glossary On
Versions: 1 2 3 4 5 6 7 8 9 10 11 12 13 14 15 16 17 18 19
000
FTUS44 KMEG 010530
TAFMKL
TAF
KMKL 010530Z 0106/0206 00000KT 3SM BR SCT250
      TEMPO 0106/0108 1SM BR
     FM010800 00000KT 5SM BR SKC
      TEMPO 0108/0112 3/4SM BR SCT004
     FM011500 13004KT P6SM SCT035 SCT250
     FM020100 00000KT P6SM FEW250=

USA.gov is the U.S. government's official web portal to all federal, state and local government web resources and services.